Time;durP1;ratioP1;P1;durP2;ratioP2;P2;SDS_P1;SDS_P2;PMS_P1;PMS_P2;Temp;Humidity;BMP_temperature;BMP_pressure;BME280_temperature;BME280_humidity;BME280_pressure;Samples;Min_cycle;Max_cycle;Signal;HPM_P1;HPM_P2
2023/09/22 00:01:38;;;;;;;2.80;0.90;;;14.90;99.90;;;;;;5055019;28;20388;-76
2023/09/22 00:04:04;;;;;;;1.63;0.93;;;14.90;99.90;;;;;;5073233;28;20025;-76
2023/09/22 00:06:30;;;;;;;7.40;3.58;;;14.90;99.90;;;;;;5049202;22;20064;-85
2023/09/22 00:08:56;;;;;;;6.22;3.13;;;14.80;99.90;;;;;;5005381;28;20404;-85
2023/09/22 00:11:22;;;;;;;6.20;1.63;;;14.80;99.90;;;;;;5006827;28;20037;-85
2023/09/22 00:13:48;;;;;;;3.97;0.90;;;14.80;99.90;;;;;;5039383;28;20119;-85
2023/09/22 00:16:14;;;;;;;3.70;0.90;;;14.70;99.90;;;;;;5022701;28;20061;-85
2023/09/22 00:18:39;;;;;;;4.45;1.10;;;14.70;99.90;;;;;;5022870;28;20036;-85
2023/09/22 00:21:05;;;;;;;1.98;1.10;;;14.70;99.90;;;;;;5003151;28;20030;-85
2023/09/22 00:23:31;;;;;;;2.35;1.00;;;14.80;99.90;;;;;;5003224;28;20030;-85
2023/09/22 00:25:57;;;;;;;4.68;0.90;;;14.80;99.90;;;;;;5035759;28;20060;-85
2023/09/22 00:28:22;;;;;;;2.03;0.70;;;14.80;99.90;;;;;;5006046;28;20508;-85
2023/09/22 00:30:48;;;;;;;3.10;1.30;;;14.80;99.90;;;;;;5019330;28;20556;-85
2023/09/22 00:33:13;;;;;;;3.50;1.05;;;14.80;99.90;;;;;;5019620;28;20489;-85
2023/09/22 00:35:39;;;;;;;2.92;1.30;;;14.80;99.90;;;;;;5036584;28;20486;-85
2023/09/22 00:38:06;;;;;;;2.58;1.17;;;14.70;99.90;;;;;;5022638;28;20486;-85
2023/09/22 00:40:32;;;;;;;2.83;1.52;;;14.70;99.90;;;;;;5022436;28;20482;-84
2023/09/22 00:43:09;;;;;;;3.92;1.30;;;14.60;99.90;;;;;;5021909;28;20040;-84
2023/09/22 00:45:43;;;;;;;3.47;1.25;;;14.50;99.90;;;;;;5017630;28;20184;-84
2023/09/22 00:48:10;;;;;;;2.97;1.30;;;14.50;99.90;;;;;;5018530;28;20021;-85
2023/09/22 00:50:37;;;;;;;2.85;1.15;;;14.50;99.90;;;;;;4993799;28;20116;-85
2023/09/22 00:53:04;;;;;;;4.13;1.25;;;14.50;99.90;;;;;;5038720;28;20082;-85
2023/09/22 00:55:30;;;;;;;2.50;1.42;;;14.50;99.90;;;;;;5038411;28;20029;-85
2023/09/22 00:57:56;;;;;;;2.65;1.35;;;14.40;99.90;;;;;;5056048;28;20021;-85
2023/09/22 01:00:22;;;;;;;2.35;1.10;;;14.40;99.90;;;;;;5021559;28;20036;-85
2023/09/22 01:02:48;;;;;;;4.00;1.33;;;14.40;99.90;;;;;;5038414;28;20053;-85
2023/09/22 01:05:16;;;;;;;2.55;1.33;;;14.40;99.90;;;;;;5005466;28;20055;-85
2023/09/22 01:07:41;;;;;;;5.25;1.20;;;14.40;99.90;;;;;;5039031;28;20071;-85
2023/09/22 01:10:11;;;;;;;3.17;1.25;;;14.40;99.90;;;;;;5005615;28;20432;-85
2023/09/22 01:12:37;;;;;;;2.38;1.30;;;14.40;99.90;;;;;;5054878;28;20519;-85
2023/09/22 01:15:03;;;;;;;3.10;1.20;;;14.30;99.90;;;;;;5021978;28;20033;-84
2023/09/22 01:17:30;;;;;;;2.63;1.02;;;14.30;99.90;;;;;;5038299;28;20397;-85
2023/09/22 01:19:56;;;;;;;4.00;1.23;;;14.30;99.90;;;;;;5037429;28;20057;-85
2023/09/22 01:22:21;;;;;;;2.83;0.98;;;14.30;99.90;;;;;;5005479;28;20029;-85
2023/09/22 01:24:47;;;;;;;3.55;1.27;;;14.40;99.90;;;;;;5021815;28;20033;-85
2023/09/22 01:27:13;;;;;;;3.00;1.20;;;14.40;99.90;;;;;;5021783;28;20021;-85
2023/09/22 01:29:40;;;;;;;2.67;1.30;;;14.40;99.90;;;;;;5021769;28;20501;-85
2023/09/22 01:32:09;;;;;;;3.30;1.00;;;14.50;99.90;;;;;;5026584;28;20040;-85
2023/09/22 01:34:35;;;;;;;2.33;1.40;;;14.60;99.90;;;;;;5007801;28;20498;-85
2023/09/22 01:37:07;;;;;;;3.88;1.40;;;14.70;99.90;;;;;;5032480;28;20041;-85
2023/09/22 01:39:36;;;;;;;2.25;1.13;;;14.80;99.90;;;;;;5019388;28;20036;-85
2023/09/22 01:42:02;;;;;;;2.53;1.30;;;14.90;99.90;;;;;;4996919;28;20079;-85
2023/09/22 01:44:27;;;;;;;3.15;2.00;;;15.10;99.90;;;;;;5018201;28;20025;-85
2023/09/22 01:46:53;;;;;;;4.25;2.40;;;15.30;99.90;;;;;;5001663;28;20120;-85
2023/09/22 01:49:19;;;;;;;4.47;1.80;;;15.60;99.90;;;;;;5001805;28;20026;-85
2023/09/22 01:51:45;;;;;;;4.88;2.13;;;15.70;99.90;;;;;;5051382;28;20384;-85
2023/09/22 01:54:10;;;;;;;4.45;1.52;;;15.80;99.90;;;;;;5005120;28;20025;-85
2023/09/22 01:56:36;;;;;;;5.13;1.67;;;15.90;99.90;;;;;;5021019;28;20066;-85
2023/09/22 01:59:01;;;;;;;3.25;1.85;;;16.00;99.90;;;;;;5017533;28;20064;-85
2023/09/22 02:01:27;;;;;;;4.03;2.00;;;16.10;99.90;;;;;;4984994;28;20033;-85
2023/09/22 02:03:53;;;;;;;2.80;1.88;;;16.20;99.90;;;;;;5017727;28;20093;-85
2023/09/22 02:06:18;;;;;;;4.43;2.00;;;16.30;99.90;;;;;;5034928;28;20038;-85
2023/09/22 02:08:44;;;;;;;3.53;1.90;;;16.70;99.90;;;;;;5001559;28;20486;-85
2023/09/22 02:11:13;;;;;;;5.80;1.70;;;16.80;99.90;;;;;;4992522;28;20600;-85
2023/09/22 02:13:40;;;;;;;3.75;1.67;;;16.90;99.90;;;;;;5005235;28;20037;-85
2023/09/22 02:16:05;;;;;;;4.28;1.63;;;16.90;99.90;;;;;;5055292;28;20017;-85
2023/09/22 02:18:31;;;;;;;2.92;1.23;;;16.90;99.90;;;;;;5037650;28;20044;-85
2023/09/22 02:20:57;;;;;;;1.88;0.80;;;16.80;99.90;;;;;;5020543;28;20485;-85
2023/09/22 02:23:26;;;;;;;5.43;1.65;;;16.80;99.90;;;;;;5004447;28;20120;-85
2023/09/22 02:25:51;;;;;;;1.55;0.70;;;16.80;99.90;;;;;;5033504;28;20061;-85
2023/09/22 02:28:18;;;;;;;2.38;1.05;;;16.90;99.90;;;;;;5017747;28;20095;-85
2023/09/22 02:30:43;;;;;;;2.10;1.13;;;17.00;99.90;;;;;;5000918;28;20029;-85
2023/09/22 02:33:09;;;;;;;3.22;1.00;;;16.90;99.90;;;;;;5017138;28;20025;-85
2023/09/22 02:35:35;;;;;;;2.55;1.33;;;16.90;99.90;;;;;;5017331;28;20034;-85
2023/09/22 02:38:01;;;;;;;3.00;0.95;;;16.80;99.90;;;;;;4984214;28;20539;-85
2023/09/22 02:40:27;;;;;;;3.55;1.10;;;16.80;99.90;;;;;;4984517;28;20459;-85
2023/09/22 02:42:53;;;;;;;2.85;1.13;;;16.70;99.90;;;;;;5034709;28;20059;-85
2023/09/22 02:45:19;;;;;;;2.35;0.98;;;16.70;99.90;;;;;;5020272;28;20033;-85
2023/09/22 02:47:45;;;;;;;1.90;1.00;;;16.70;99.90;;;;;;5036667;28;20025;-85
2023/09/22 02:50:15;;;;;;;2.55;1.00;;;16.70;99.90;;;;;;5036253;28;20543;-85
2023/09/22 02:52:42;;;;;;;2.90;1.30;;;16.70;99.90;;;;;;5044635;28;20088;-85
2023/09/22 02:55:09;;;;;;;2.30;1.00;;;16.70;99.90;;;;;;5007868;28;20397;-85
2023/09/22 02:57:38;;;;;;;2.70;1.30;;;16.70;99.90;;;;;;5036271;28;20029;-85
2023/09/22 03:00:11;;;;;;;3.78;1.60;;;16.80;99.90;;;;;;5023659;28;20046;-85
2023/09/22 03:02:38;;;;;;;2.92;1.08;;;16.80;99.90;;;;;;5036439;28;20029;-85
2023/09/22 03:05:07;;;;;;;2.50;0.95;;;16.80;99.90;;;;;;5019936;28;20121;-85
2023/09/22 03:07:33;;;;;;;3.10;1.17;;;16.70;99.90;;;;;;5036262;28;20443;-85
2023/09/22 03:09:59;;;;;;;2.67;1.30;;;16.70;99.90;;;;;;5054482;28;20029;-85
2023/09/22 03:12:24;;;;;;;3.90;1.58;;;16.70;99.90;;;;;;5020297;28;20060;-85
2023/09/22 03:14:51;;;;;;;3.55;1.50;;;16.70;99.90;;;;;;5036335;28;20524;-85
2023/09/22 03:17:16;;;;;;;3.83;1.50;;;16.70;99.90;;;;;;5003515;28;20493;-85
2023/09/22 03:19:42;;;;;;;6.55;1.88;;;16.80;99.90;;;;;;4983848;28;20090;-86
2023/09/22 03:22:08;;;;;;;2.35;1.20;;;16.80;99.90;;;;;;5000179;28;20029;-86
2023/09/22 03:24:34;;;;;;;3.55;1.35;;;16.70;99.90;;;;;;4993390;28;20038;-85
2023/09/22 03:26:59;;;;;;;3.67;1.70;;;16.70;99.90;;;;;;4999795;28;20084;-85
2023/09/22 03:29:25;;;;;;;4.05;1.45;;;16.70;99.90;;;;;;5000009;28;20033;-86
2023/09/22 03:31:51;;;;;;;4.20;1.58;;;16.60;99.90;;;;;;5002587;28;20029;-85
2023/09/22 03:34:17;;;;;;;3.53;1.30;;;16.60;99.90;;;;;;5019373;28;20432;-85
2023/09/22 03:36:43;;;;;;;5.47;1.10;;;16.50;99.90;;;;;;5003396;28;20040;-85
2023/09/22 03:39:12;;;;;;;5.03;1.83;;;16.40;99.90;;;;;;5003308;28;20029;-85
2023/09/22 03:41:39;;;;;;;3.13;1.52;;;16.40;99.90;;;;;;5004195;28;20397;-85
2023/09/22 03:44:05;;;;;;;3.45;1.45;;;16.30;99.90;;;;;;5033833;28;20029;-85
2023/09/22 03:46:30;;;;;;;2.90;1.30;;;16.40;99.90;;;;;;5003195;28;20036;-85
2023/09/22 03:48:56;;;;;;;2.55;1.15;;;16.40;99.90;;;;;;4996981;28;20503;-85
2023/09/22 03:51:22;;;;;;;4.05;1.52;;;16.40;99.90;;;;;;5018161;28;20405;-85
2023/09/22 03:53:47;;;;;;;3.97;1.20;;;16.40;99.90;;;;;;5024297;28;20027;-85
2023/09/22 03:56:13;;;;;;;6.07;1.30;;;16.50;99.90;;;;;;5016557;28;20025;-84
2023/09/22 03:58:55;;;;;;;3.45;1.35;;;16.50;99.90;;;;;;5029076;28;20043;-85
2023/09/22 04:01:20;;;;;;;2.63;1.10;;;16.50;99.90;;;;;;5024455;28;20057;-85
2023/09/22 04:03:47;;;;;;;3.78;1.42;;;16.50;99.90;;;;;;5019966;28;20473;-84
2023/09/22 04:06:13;;;;;;;3.17;1.38;;;16.60;99.90;;;;;;5009947;28;20036;-84
2023/09/22 04:08:38;;;;;;;2.97;1.30;;;16.60;99.90;;;;;;5055909;28;20083;-85
2023/09/22 04:11:04;;;;;;;3.03;1.02;;;16.60;99.90;;;;;;5022686;28;20469;-85
2023/09/22 04:13:30;;;;;;;2.60;1.02;;;16.60;99.90;;;;;;5019541;28;20099;-85
2023/09/22 04:16:00;;;;;;;3.50;1.50;;;16.50;99.90;;;;;;5018052;28;20112;-85
2023/09/22 04:18:32;;;;;;;2.67;1.08;;;16.50;99.90;;;;;;5020460;28;20053;-85
2023/09/22 04:21:01;;;;;;;3.08;1.30;;;16.40;99.90;;;;;;5023262;28;20524;-85
2023/09/22 04:23:28;;;;;;;3.42;1.17;;;16.40;99.90;;;;;;5038771;28;20473;-85
2023/09/22 04:25:54;;;;;;;2.40;1.15;;;16.40;99.90;;;;;;5039111;28;20032;-84
2023/09/22 04:28:24;;;;;;;2.92;1.25;;;16.30;99.90;;;;;;5040748;28;20463;-83
2023/09/22 04:30:50;;;;;;;3.28;1.10;;;16.30;99.90;;;;;;5025244;28;20025;-83
2023/09/22 04:33:17;;;;;;;2.90;1.17;;;16.30;99.90;;;;;;5042278;28;20032;-83
2023/09/22 04:35:43;;;;;;;2.45;1.13;;;16.30;99.90;;;;;;5044066;28;20085;-83
2023/09/22 04:38:10;;;;;;;2.40;1.00;;;16.30;99.90;;;;;;5024222;28;20393;-83
2023/09/22 04:40:39;;;;;;;2.80;1.08;;;16.20;99.90;;;;;;5008600;28;20083;-83
2023/09/22 04:43:08;;;;;;;3.67;1.30;;;16.20;99.90;;;;;;5008418;28;20045;-83
2023/09/22 04:45:39;;;;;;;3.30;1.33;;;16.20;99.90;;;;;;5012020;28;20037;-83
2023/09/22 04:48:05;;;;;;;3.03;1.20;;;16.20;99.90;;;;;;5054596;28;20027;-83
2023/09/22 04:50:32;;;;;;;2.67;1.08;;;16.20;99.90;;;;;;5040100;28;20123;-83
2023/09/22 04:52:58;;;;;;;3.03;1.00;;;16.20;99.90;;;;;;5007929;28;20036;-83
2023/09/22 04:55:25;;;;;;;2.55;1.00;;;16.20;99.90;;;;;;5022142;28;20440;-83
2023/09/22 04:57:50;;;;;;;2.50;1.02;;;16.10;99.90;;;;;;5023110;28;20029;-84
2023/09/22 05:00:16;;;;;;;2.63;1.00;;;16.10;99.90;;;;;;5006484;28;20037;-83
2023/09/22 05:02:43;;;;;;;2.45;1.08;;;16.10;99.90;;;;;;5006875;28;20405;-83
2023/09/22 05:05:10;;;;;;;2.15;0.95;;;16.00;99.90;;;;;;5039401;28;20504;-83
2023/09/22 05:07:36;;;;;;;2.42;0.85;;;16.00;99.90;;;;;;5039537;28;20029;-83
2023/09/22 05:10:03;;;;;;;2.10;0.95;;;16.00;99.90;;;;;;5056830;28;20082;-83
2023/09/22 05:12:30;;;;;;;2.30;0.90;;;16.00;99.90;;;;;;5006869;28;20059;-83
2023/09/22 05:14:58;;;;;;;2.65;0.85;;;16.00;99.90;;;;;;5022973;28;20037;-83
2023/09/22 05:17:24;;;;;;;2.90;1.00;;;16.00;99.90;;;;;;5056579;28;20083;-83
2023/09/22 05:19:50;;;;;;;3.28;1.08;;;16.00;99.90;;;;;;5039250;28;20032;-83
2023/09/22 05:22:17;;;;;;;2.60;1.10;;;16.00;99.90;;;;;;5039467;28;20041;-83
2023/09/22 05:24:44;;;;;;;2.95;1.13;;;16.00;99.90;;;;;;5023215;28;20021;-83
2023/09/22 05:27:10;;;;;;;2.47;1.20;;;16.00;99.90;;;;;;5022981;28;20036;-83
2023/09/22 05:29:36;;;;;;;4.15;1.40;;;15.90;99.90;;;;;;5023213;28;20120;-83
2023/09/22 05:32:01;;;;;;;3.35;1.50;;;15.90;99.90;;;;;;5006768;28;20480;-83
2023/09/22 05:34:28;;;;;;;4.28;1.38;;;15.90;99.90;;;;;;5023466;28;20056;-83
2023/09/22 05:36:56;;;;;;;1.60;0.80;;;15.80;99.90;;;;;;5023118;28;20029;-83
2023/09/22 05:39:22;;;;;;;3.55;1.23;;;15.80;99.90;;;;;;5039185;28;20037;-83
2023/09/22 05:41:48;;;;;;;2.30;1.10;;;15.80;99.90;;;;;;5006638;28;20032;-83
2023/09/22 05:44:16;;;;;;;4.05;1.20;;;15.80;99.90;;;;;;5056376;28;20436;-83
2023/09/22 05:46:42;;;;;;;3.38;1.20;;;15.80;99.90;;;;;;5022345;28;20559;-83
2023/09/22 05:49:08;;;;;;;2.25;1.10;;;15.80;99.90;;;;;;5021234;28;20028;-83
2023/09/22 05:51:34;;;;;;;2.75;1.40;;;15.80;99.90;;;;;;5022100;28;20032;-83
2023/09/22 05:54:00;;;;;;;4.35;1.52;;;15.70;99.90;;;;;;5039003;28;20033;-83
2023/09/22 05:56:25;;;;;;;3.13;1.30;;;15.70;99.90;;;;;;5005654;28;20025;-83
2023/09/22 05:58:51;;;;;;;2.80;1.13;;;15.70;99.90;;;;;;5021558;28;20398;-83
2023/09/22 06:01:17;;;;;;;2.33;0.80;;;15.70;99.90;;;;;;5021739;28;20067;-83
2023/09/22 06:03:47;;;;;;;2.95;1.42;;;15.70;99.90;;;;;;5022325;28;20029;-83
2023/09/22 06:06:16;;;;;;;2.25;1.02;;;15.60;99.90;;;;;;5037183;28;20037;-83
2023/09/22 06:08:45;;;;;;;2.90;1.08;;;15.60;99.90;;;;;;5037850;28;20035;-83
2023/09/22 06:11:11;;;;;;;3.78;1.55;;;15.60;99.90;;;;;;5039100;28;20040;-83
2023/09/22 06:13:38;;;;;;;3.47;1.45;;;15.60;99.90;;;;;;5038163;28;20025;-83
2023/09/22 06:16:04;;;;;;;1.88;1.10;;;15.50;99.90;;;;;;5037445;28;20504;-83
2023/09/22 06:18:31;;;;;;;3.75;1.50;;;15.50;99.90;;;;;;5005745;28;20071;-83
2023/09/22 06:20:58;;;;;;;5.90;1.30;;;15.50;99.90;;;;;;5037179;28;20032;-83
2023/09/22 06:23:25;;;;;;;5.95;1.30;;;15.40;99.90;;;;;;5004502;28;20026;-83
2023/09/22 06:25:51;;;;;;;2.97;1.00;;;15.40;99.90;;;;;;5020534;28;20427;-83
2023/09/22 06:28:18;;;;;;;2.20;1.02;;;15.40;99.90;;;;;;5036822;28;20036;-83
2023/09/22 06:30:46;;;;;;;2.40;1.00;;;15.40;99.90;;;;;;5020536;28;20166;-83
2023/09/22 06:33:16;;;;;;;2.88;0.85;;;15.40;99.90;;;;;;5019842;28;20078;-84
2023/09/22 06:35:43;;;;;;;1.88;0.70;;;15.30;99.90;;;;;;5002038;28;20036;-84
2023/09/22 06:38:13;;;;;;;1.42;0.60;;;15.40;99.90;;;;;;5018269;28;20596;-84
2023/09/22 06:40:40;;;;;;;2.58;0.73;;;15.30;99.90;;;;;;5018657;28;20029;-84
2023/09/22 06:43:08;;;;;;;1.63;0.60;;;15.30;99.90;;;;;;5018454;28;20110;-83
2023/09/22 06:45:37;;;;;;;2.20;0.73;;;15.30;99.90;;;;;;5035801;28;20017;-83
2023/09/22 06:48:05;;;;;;;2.15;1.00;;;15.30;99.90;;;;;;5019848;28;20119;-83
2023/09/22 06:50:34;;;;;;;1.60;0.77;;;15.30;99.90;;;;;;5020386;28;20025;-84
2023/09/22 06:53:00;;;;;;;3.60;0.90;;;15.30;99.90;;;;;;5036757;28;20120;-83
2023/09/22 06:55:25;;;;;;;2.00;1.02;;;15.20;99.90;;;;;;5020457;28;20061;-83
2023/09/22 06:57:52;;;;;;;2.10;1.05;;;15.20;99.90;;;;;;5037504;28;20021;-82
2023/09/22 07:00:18;;;;;;;1.33;0.70;;;15.20;99.90;;;;;;5055697;28;20036;-83
2023/09/22 07:02:47;;;;;;;2.05;1.00;;;15.20;99.90;;;;;;5003684;28;20116;-83
2023/09/22 07:05:13;;;;;;;1.85;0.80;;;15.20;99.90;;;;;;5019210;28;20048;-83
2023/09/22 07:07:40;;;;;;;2.92;1.02;;;15.30;99.90;;;;;;5053863;28;20021;-82
2023/09/22 07:10:13;;;;;;;1.85;0.80;;;15.30;99.90;;;;;;5036315;28;20032;-82
2023/09/22 07:12:41;;;;;;;2.30;0.90;;;15.30;99.90;;;;;;5004251;28;20036;-82
2023/09/22 07:15:08;;;;;;;2.58;1.00;;;15.30;99.90;;;;;;5036672;28;20104;-82
2023/09/22 07:17:34;;;;;;;3.13;0.93;;;15.20;99.90;;;;;;5035443;28;20088;-82
2023/09/22 07:20:01;;;;;;;2.60;0.90;;;15.20;99.90;;;;;;5019243;28;20025;-82
2023/09/22 07:22:33;;;;;;;1.42;0.82;;;15.20;99.90;;;;;;5053472;28;20025;-82
2023/09/22 07:24:59;;;;;;;4.18;1.20;;;15.20;99.90;;;;;;5035633;28;20122;-82
2023/09/22 07:27:25;;;;;;;3.70;0.90;;;15.10;99.90;;;;;;5035596;28;20025;-82
2023/09/22 07:29:52;;;;;;;9.77;3.70;;;15.20;99.90;;;;;;5035628;28;20083;-82
2023/09/22 07:32:18;;;;;;;9.93;3.78;;;15.10;99.90;;;;;;5053630;28;20111;-82
2023/09/22 07:34:45;;;;;;;5.85;2.63;;;15.00;99.90;;;;;;5019377;28;20436;-82
2023/09/22 07:37:11;;;;;;;3.80;1.17;;;14.90;99.90;;;;;;5019318;28;20032;-82
2023/09/22 07:39:40;;;;;;;2.38;0.98;;;14.90;99.90;;;;;;5035561;28;20025;-82
2023/09/22 07:42:07;;;;;;;3.05;1.10;;;14.80;99.90;;;;;;5002848;28;20021;-82
2023/09/22 07:44:32;;;;;;;4.60;0.90;;;14.80;99.90;;;;;;5019173;28;20044;-82
2023/09/22 07:47:00;;;;;;;2.55;0.90;;;14.70;99.90;;;;;;5035567;28;20021;-82
2023/09/22 07:49:28;;;;;;;2.13;1.02;;;14.70;99.90;;;;;;5053337;28;20017;-81
2023/09/22 07:51:54;;;;;;;2.10;0.90;;;14.70;99.90;;;;;;5035374;28;20052;-81
2023/09/22 07:54:24;;;;;;;1.85;0.80;;;14.80;99.90;;;;;;5035702;28;20485;-81
2023/09/22 07:56:50;;;;;;;4.40;1.10;;;14.80;99.90;;;;;;5036173;28;20512;-81
2023/09/22 07:59:16;;;;;;;2.03;0.77;;;14.80;99.90;;;;;;5053403;28;20279;-81
2023/09/22 08:01:43;;;;;;;2.63;1.05;;;14.90;99.90;;;;;;5053810;28;20555;-81
2023/09/22 08:04:13;;;;;;;1.92;0.85;;;14.90;99.90;;;;;;5019279;28;20017;-81
2023/09/22 08:06:39;;;;;;;3.63;1.23;;;15.00;99.90;;;;;;5036178;28;20065;-81
2023/09/22 08:09:05;;;;;;;2.75;1.00;;;15.00;99.90;;;;;;5054131;28;20431;-81
2023/09/22 08:11:32;;;;;;;3.63;1.23;;;15.10;99.90;;;;;;5036054;28;20424;-81
2023/09/22 08:13:59;;;;;;;1.95;0.75;;;15.00;99.90;;;;;;5035856;28;20051;-81
2023/09/22 08:16:27;;;;;;;1.45;0.68;;;15.00;99.90;;;;;;5035482;28;20120;-81
2023/09/22 08:18:54;;;;;;;4.65;1.30;;;15.00;99.90;;;;;;5054356;28;20033;-81
2023/09/22 08:21:25;;;;;;;3.00;0.60;;;15.00;99.90;;;;;;5054017;28;20028;-81
2023/09/22 08:23:51;;;;;;;1.13;0.50;;;15.00;99.90;;;;;;5054418;28;20070;-81
2023/09/22 08:26:18;;;;;;;1.42;0.70;;;15.00;99.90;;;;;;5036163;28;20037;-81
2023/09/22 08:28:44;;;;;;;1.23;0.43;;;14.90;99.90;;;;;;5037053;28;20025;-81
2023/09/22 08:31:11;;;;;;;0.93;0.43;;;14.90;99.90;;;;;;5039944;28;20029;-81
2023/09/22 08:33:40;;;;;;;1.38;0.52;;;14.90;99.90;;;;;;5040382;28;20033;-81
2023/09/22 08:36:06;;;;;;;1.50;0.35;;;14.90;99.90;;;;;;5023697;28;20090;-82
2023/09/22 08:38:33;;;;;;;0.98;0.40;;;14.90;99.90;;;;;;5023303;28;20544;-82
2023/09/22 08:41:04;;;;;;;0.77;0.40;;;14.90;99.90;;;;;;5057554;28;20057;-82
2023/09/22 08:43:32;;;;;;;1.20;0.60;;;14.90;99.90;;;;;;5057298;28;20021;-82
2023/09/22 08:45:59;;;;;;;0.88;0.35;;;14.90;99.90;;;;;;5039146;28;20025;-82
2023/09/22 08:48:25;;;;;;;0.77;0.35;;;14.90;99.90;;;;;;5022967;28;20025;-82
2023/09/22 08:50:51;;;;;;;1.00;0.40;;;14.90;99.90;;;;;;5039362;28;20029;-82
2023/09/22 08:53:19;;;;;;;1.65;0.40;;;14.90;99.90;;;;;;5039328;28;20037;-82
2023/09/22 08:55:44;;;;;;;0.77;0.30;;;14.90;99.90;;;;;;5038693;28;20036;-82
2023/09/22 08:58:10;;;;;;;2.25;0.57;;;14.90;99.90;;;;;;5038484;28;20493;-81
2023/09/22 09:00:36;;;;;;;1.40;0.50;;;14.90;99.90;;;;;;5038741;28;20025;-82
2023/09/22 09:03:11;;;;;;;0.70;0.40;;;14.90;99.90;;;;;;5021922;28;20025;-81
2023/09/22 09:05:40;;;;;;;1.20;0.50;;;14.80;99.90;;;;;;5038754;28;20041;-82
2023/09/22 09:08:11;;;;;;;1.08;0.50;;;14.90;99.90;;;;;;5022400;28;20025;-81
2023/09/22 09:10:38;;;;;;;1.35;0.55;;;14.90;99.90;;;;;;5021895;28;20560;-81
2023/09/22 09:13:06;;;;;;;0.55;0.30;;;14.90;99.90;;;;;;5056429;28;20036;-81
2023/09/22 09:15:45;;;;;;;0.73;0.30;;;14.90;99.90;;;;;;5038735;28;20029;-81
2023/09/22 09:18:19;;;;;;;0.77;0.30;;;14.90;99.90;;;;;;5056156;28;20095;-81
2023/09/22 09:21:05;;;;;;;1.13;0.50;;;14.90;99.90;;;;;;5056273;28;20032;-81
2023/09/22 09:23:32;;;;;;;0.55;0.30;;;14.90;99.90;;;;;;5038584;28;20028;-81
2023/09/22 09:25:58;;;;;;;1.40;0.28;;;15.00;99.90;;;;;;5056310;28;20412;-81
2023/09/22 09:28:25;;;;;;;0.60;0.30;;;15.00;99.90;;;;;;5055831;28;20028;-81
2023/09/22 09:30:54;;;;;;;1.13;0.40;;;15.00;99.90;;;;;;5022055;28;20024;-82
2023/09/22 09:33:26;;;;;;;0.80;0.30;;;14.90;99.90;;;;;;5021609;28;20141;-81
2023/09/22 09:35:53;;;;;;;1.92;0.40;;;14.90;99.90;;;;;;5056157;28;20072;-81
2023/09/22 09:38:22;;;;;;;0.73;0.38;;;14.90;99.90;;;;;;5038906;28;20025;-81
2023/09/22 09:40:50;;;;;;;1.00;0.40;;;14.90;99.90;;;;;;5021574;28;20033;-81
2023/09/22 09:43:16;;;;;;;2.13;0.57;;;14.90;99.90;;;;;;5038403;28;20485;-81
2023/09/22 09:45:44;;;;;;;0.82;0.40;;;14.90;99.90;;;;;;5056350;28;20060;-81
2023/09/22 09:48:16;;;;;;;0.52;0.30;;;14.90;99.90;;;;;;5037851;28;20021;-81
2023/09/22 09:50:51;;;;;;;0.43;0.22;;;14.90;99.90;;;;;;5055582;28;20033;-81
2023/09/22 09:53:43;;;;;;;1.27;0.60;;;14.90;99.90;;;;;;5037856;28;20550;-81
2023/09/22 09:56:13;;;;;;;1.98;1.00;;;14.90;99.90;;;;;;5055860;28;20028;-81
2023/09/22 09:58:39;;;;;;;1.90;0.40;;;14.90;99.90;;;;;;5055861;28;20051;-81
2023/09/22 10:01:06;;;;;;;2.97;0.90;;;14.90;99.90;;;;;;5055659;28;20031;-81
2023/09/22 10:03:36;;;;;;;0.88;0.40;;;14.90;99.90;;;;;;5021185;28;20396;-81
2023/09/22 10:06:09;;;;;;;1.05;0.63;;;14.90;99.90;;;;;;5021947;28;20037;-82
2023/09/22 10:08:37;;;;;;;1.02;0.57;;;14.90;99.90;;;;;;5037826;28;20511;-81
2023/09/22 10:11:05;;;;;;;1.42;0.50;;;14.90;99.90;;;;;;5037606;28;20024;-81
2023/09/22 10:13:31;;;;;;;0.60;0.30;;;14.80;99.90;;;;;;5055591;28;20021;-81
2023/09/22 10:15:59;;;;;;;0.98;0.50;;;14.80;99.90;;;;;;5037448;28;20029;-81
2023/09/22 10:18:47;;;;;;;0.38;0.20;;;14.80;99.90;;;;;;5055418;28;20029;-81
2023/09/22 10:21:37;;;;;;;0.57;0.30;;;14.90;99.90;;;;;;5037430;28;20048;-81
2023/09/22 10:24:32;;;;;;;1.17;0.50;;;15.00;99.90;;;;;;5037693;28;20032;-81
2023/09/22 10:27:07;;;;;;;0.63;0.38;;;15.00;99.90;;;;;;5053794;28;20033;-81
2023/09/22 10:29:33;;;;;;;1.00;0.40;;;14.90;99.90;;;;;;5055881;28;20044;-81
2023/09/22 10:32:50;;;;;;;0.75;0.30;;;14.90;99.90;;;;;;5037280;28;20024;-81
2023/09/22 10:35:15;;;;;;;0.60;0.30;;;15.00;99.90;;;;;;5051028;28;20036;-81
2023/09/22 10:38:01;;;;;;;0.93;0.40;;;15.00;99.90;;;;;;5021311;28;20196;-81
2023/09/22 10:40:26;;;;;;;1.23;0.52;;;15.00;99.90;;;;;;5054681;28;20385;-81
2023/09/22 10:42:52;;;;;;;1.10;0.60;;;14.90;99.90;;;;;;5037357;28;20021;-81
2023/09/22 10:45:23;;;;;;;1.33;0.57;;;14.90;99.90;;;;;;5021294;28;20025;-81
2023/09/22 10:47:51;;;;;;;;;;;14.80;99.90;;;;;;5037295;28;20052;-82
2023/09/22 10:50:26;;;;;;;1.08;0.50;;;14.80;99.90;;;;;;5036845;28;19912;-81
2023/09/22 10:53:05;;;;;;;1.40;0.40;;;14.90;99.90;;;;;;5035931;28;20048;-81
2023/09/22 10:55:38;;;;;;;0.98;0.40;;;14.90;99.90;;;;;;5054916;28;20028;-81
2023/09/22 10:58:09;;;;;;;0.80;0.40;;;14.90;99.90;;;;;;5037079;28;20021;-82
2023/09/22 11:00:37;;;;;;;;;;;15.00;99.90;;;;;;5055707;28;20115;-82
2023/09/22 11:03:13;;;;;;;0.60;0.40;;;15.00;99.90;;;;;;5021594;28;19908;-82
2023/09/22 11:05:40;;;;;;;1.38;0.50;;;14.90;99.90;;;;;;5054652;28;20091;-82
2023/09/22 11:08:16;;;;;;;1.45;0.40;;;15.00;99.90;;;;;;5020555;28;20029;-81
2023/09/22 11:10:43;;;;;;;1.30;0.50;;;15.00;99.90;;;;;;5054519;28;20029;-82
2023/09/22 11:13:09;;;;;;;1.83;0.70;;;15.00;99.90;;;;;;5037139;28;20098;-82
2023/09/22 11:15:54;;;;;;;1.65;0.75;;;15.00;99.90;;;;;;5021011;28;20028;-81
2023/09/22 11:18:25;;;;;;;1.00;0.40;;;15.00;99.90;;;;;;5056127;28;20021;-81
2023/09/22 11:20:57;;;;;;;1.33;0.57;;;15.00;99.90;;;;;;5037436;28;20043;-82
2023/09/22 11:23:27;;;;;;;1.75;0.60;;;15.00;99.90;;;;;;5037635;28;20024;-82
2023/09/22 11:26:04;;;;;;;1.02;0.30;;;15.10;99.90;;;;;;5037229;28;20079;-82
2023/09/22 11:28:31;;;;;;;1.15;0.40;;;15.20;99.90;;;;;;5037735;28;20027;-82
2023/09/22 11:31:08;;;;;;;1.58;0.65;;;15.30;99.90;;;;;;5020659;28;20029;-82
2023/09/22 11:33:36;;;;;;;0.85;0.32;;;15.30;99.90;;;;;;5036905;28;20094;-81
2023/09/22 11:36:03;;;;;;;0.77;0.30;;;15.40;99.90;;;;;;5020411;28;20021;-82
2023/09/22 11:38:32;;;;;;;0.70;0.30;;;15.50;99.90;;;;;;5037008;28;20489;-82
2023/09/22 11:41:11;;;;;;;0.90;0.30;;;15.40;99.90;;;;;;5036964;28;20039;-82
2023/09/22 11:43:48;;;;;;;0.85;0.40;;;15.40;99.90;;;;;;5036984;28;20021;-82
2023/09/22 11:46:15;;;;;;;1.20;0.60;;;15.40;99.90;;;;;;5037224;28;20112;-81
2023/09/22 11:48:51;;;;;;;1.95;0.73;;;15.40;99.90;;;;;;5058771;28;20520;-82
2023/09/22 11:51:18;;;;;;;1.02;0.43;;;15.50;99.90;;;;;;5025240;28;20142;-82
2023/09/22 11:53:44;;;;;;;0.60;0.30;;;15.40;99.90;;;;;;5024721;28;20053;-82
2023/09/22 11:56:09;;;;;;;1.02;0.40;;;15.50;99.90;;;;;;5007974;28;20036;-82
2023/09/22 11:58:35;;;;;;;1.20;0.50;;;15.40;99.90;;;;;;5006582;28;20033;-82
2023/09/22 12:01:01;;;;;;;0.88;0.45;;;15.40;99.90;;;;;;5039241;28;20025;-82
2023/09/22 12:03:26;;;;;;;1.63;0.50;;;15.50;99.90;;;;;;5005941;28;20029;-81
2023/09/22 12:05:53;;;;;;;1.52;0.50;;;15.50;99.90;;;;;;5008896;28;20047;-82
2023/09/22 12:08:18;;;;;;;2.35;0.60;;;15.50;99.90;;;;;;5009064;28;20033;-82
2023/09/22 12:10:44;;;;;;;2.95;0.60;;;15.50;99.90;;;;;;5024913;28;20408;-82
2023/09/22 12:13:10;;;;;;;2.25;0.57;;;15.40;99.90;;;;;;5009169;28;20435;-82
2023/09/22 12:15:35;;;;;;;2.80;0.70;;;15.30;99.90;;;;;;5027358;28;20128;-82
2023/09/22 12:18:03;;;;;;;2.50;1.10;;;15.20;99.90;;;;;;5040512;28;20033;-82
2023/09/22 12:20:28;;;;;;;1.23;0.63;;;15.20;99.90;;;;;;5022851;28;20162;-82
2023/09/22 12:22:54;;;;;;;1.92;0.50;;;15.10;99.90;;;;;;5039164;28;20145;-82
2023/09/22 12:25:20;;;;;;;1.23;0.55;;;15.10;99.90;;;;;;5023107;28;20477;-81
2023/09/22 12:27:45;;;;;;;3.53;0.80;;;15.10;99.90;;;;;;5039858;28;20029;-81
2023/09/22 12:30:11;;;;;;;4.47;2.72;;;15.00;99.90;;;;;;5023038;28;20470;-81
2023/09/22 12:32:37;;;;;;;1.67;0.98;;;15.00;99.90;;;;;;5039924;28;20068;-81
2023/09/22 12:35:05;;;;;;;1.75;0.75;;;14.90;99.90;;;;;;5022946;28;20040;-82
2023/09/22 12:37:31;;;;;;;3.20;1.30;;;14.80;99.90;;;;;;5022753;28;20055;-82
2023/09/22 12:39:58;;;;;;;2.33;1.15;;;14.80;99.90;;;;;;5022401;28;20037;-82
2023/09/22 12:42:24;;;;;;;1.30;0.60;;;14.80;99.90;;;;;;5006541;28;20025;-81
2023/09/22 12:44:50;;;;;;;1.48;0.70;;;14.80;99.90;;;;;;5057294;28;20028;-82
2023/09/22 12:47:16;;;;;;;1.30;0.77;;;14.70;99.90;;;;;;5003168;28;20075;-81
2023/09/22 12:49:42;;;;;;;2.15;0.63;;;14.70;99.90;;;;;;5035766;28;20029;-82
2023/09/22 12:52:08;;;;;;;1.98;0.68;;;14.70;99.90;;;;;;5019186;28;20120;-81